sensor_id;sensor_type;location;lat;lon;timestamp;P1;durP1;ratioP1;P2;durP2;ratioP2
2538;SDS011;1280;49.760;9.664;2023-08-12T00:01:11;13.63;;;4.27;;
2538;SDS011;1280;49.760;9.664;2023-08-12T00:03:39;11.57;;;3.80;;
2538;SDS011;1280;49.760;9.664;2023-08-12T00:06:09;18.53;;;5.13;;
2538;SDS011;1280;49.760;9.664;2023-08-12T00:08:37;21.07;;;5.40;;
2538;SDS011;1280;49.760;9.664;2023-08-12T00:11:05;15.57;;;4.90;;
2538;SDS011;1280;49.760;9.664;2023-08-12T00:13:33;14.00;;;4.33;;
2538;SDS011;1280;49.760;9.664;2023-08-12T00:16:01;11.60;;;4.40;;
2538;SDS011;1280;49.760;9.664;2023-08-12T00:18:30;15.93;;;4.77;;
2538;SDS011;1280;49.760;9.664;2023-08-12T00:21:06;9.93;;;4.13;;
2538;SDS011;1280;49.760;9.664;2023-08-12T00:23:38;13.73;;;4.50;;
2538;SDS011;1280;49.760;9.664;2023-08-12T00:26:07;9.23;;;3.97;;
2538;SDS011;1280;49.760;9.664;2023-08-12T00:28:35;15.37;;;4.53;;
2538;SDS011;1280;49.760;9.664;2023-08-12T00:31:04;12.20;;;4.40;;
2538;SDS011;1280;49.760;9.664;2023-08-12T00:33:32;16.30;;;4.07;;
2538;SDS011;1280;49.760;9.664;2023-08-12T00:36:00;10.93;;;4.50;;
2538;SDS011;1280;49.760;9.664;2023-08-12T00:38:28;20.53;;;4.53;;
2538;SDS011;1280;49.760;9.664;2023-08-12T00:40:57;16.47;;;4.40;;
2538;SDS011;1280;49.760;9.664;2023-08-12T00:43:25;12.70;;;4.63;;
2538;SDS011;1280;49.760;9.664;2023-08-12T00:45:55;14.57;;;5.40;;
2538;SDS011;1280;49.760;9.664;2023-08-12T00:48:24;13.10;;;4.57;;
2538;SDS011;1280;49.760;9.664;2023-08-12T00:50:53;11.67;;;4.37;;
2538;SDS011;1280;49.760;9.664;2023-08-12T00:53:21;12.33;;;4.20;;
2538;SDS011;1280;49.760;9.664;2023-08-12T00:55:52;10.57;;;4.47;;
2538;SDS011;1280;49.760;9.664;2023-08-12T00:58:22;13.73;;;4.37;;
2538;SDS011;1280;49.760;9.664;2023-08-12T01:00:50;14.37;;;4.50;;
2538;SDS011;1280;49.760;9.664;2023-08-12T01:05:57;16.67;;;4.50;;
2538;SDS011;1280;49.760;9.664;2023-08-12T01:08:30;18.73;;;4.60;;
2538;SDS011;1280;49.760;9.664;2023-08-12T01:11:13;14.53;;;4.27;;
2538;SDS011;1280;49.760;9.664;2023-08-12T01:13:49;11.10;;;3.90;;
2538;SDS011;1280;49.760;9.664;2023-08-12T01:16:25;10.70;;;4.40;;
2538;SDS011;1280;49.760;9.664;2023-08-12T01:18:56;9.97;;;4.70;;
2538;SDS011;1280;49.760;9.664;2023-08-12T01:21:27;13.00;;;4.30;;
2538;SDS011;1280;49.760;9.664;2023-08-12T01:23:58;11.57;;;4.37;;
2538;SDS011;1280;49.760;9.664;2023-08-12T01:26:26;10.83;;;4.40;;
2538;SDS011;1280;49.760;9.664;2023-08-12T01:28:54;15.63;;;4.60;;
2538;SDS011;1280;49.760;9.664;2023-08-12T01:31:23;12.13;;;4.87;;
2538;SDS011;1280;49.760;9.664;2023-08-12T01:34:01;15.90;;;5.23;;
2538;SDS011;1280;49.760;9.664;2023-08-12T01:36:34;9.23;;;4.70;;
2538;SDS011;1280;49.760;9.664;2023-08-12T01:39:06;8.10;;;4.73;;
2538;SDS011;1280;49.760;9.664;2023-08-12T01:41:38;12.37;;;4.43;;
2538;SDS011;1280;49.760;9.664;2023-08-12T01:44:06;9.27;;;4.23;;
2538;SDS011;1280;49.760;9.664;2023-08-12T01:46:35;16.10;;;4.63;;
2538;SDS011;1280;49.760;9.664;2023-08-12T01:49:03;10.00;;;3.90;;
2538;SDS011;1280;49.760;9.664;2023-08-12T01:51:31;10.90;;;4.33;;
2538;SDS011;1280;49.760;9.664;2023-08-12T01:54:01;10.50;;;3.80;;
2538;SDS011;1280;49.760;9.664;2023-08-12T01:56:30;13.43;;;4.90;;
2538;SDS011;1280;49.760;9.664;2023-08-12T01:58:58;11.10;;;4.70;;
2538;SDS011;1280;49.760;9.664;2023-08-12T02:01:27;11.20;;;4.73;;
2538;SDS011;1280;49.760;9.664;2023-08-12T02:03:55;17.03;;;4.90;;
2538;SDS011;1280;49.760;9.664;2023-08-12T02:06:23;12.50;;;4.87;;
2538;SDS011;1280;49.760;9.664;2023-08-12T02:08:52;11.83;;;4.37;;
2538;SDS011;1280;49.760;9.664;2023-08-12T02:11:20;9.03;;;4.00;;
2538;SDS011;1280;49.760;9.664;2023-08-12T02:17:11;11.53;;;4.53;;
2538;SDS011;1280;49.760;9.664;2023-08-12T02:19:40;11.43;;;3.70;;
2538;SDS011;1280;49.760;9.664;2023-08-12T02:22:09;13.33;;;4.73;;
2538;SDS011;1280;49.760;9.664;2023-08-12T02:24:39;15.53;;;4.10;;
2538;SDS011;1280;49.760;9.664;2023-08-12T02:27:07;8.50;;;4.40;;
2538;SDS011;1280;49.760;9.664;2023-08-12T02:29:39;11.07;;;4.30;;
2538;SDS011;1280;49.760;9.664;2023-08-12T02:32:08;11.00;;;4.77;;
2538;SDS011;1280;49.760;9.664;2023-08-12T02:34:37;13.37;;;4.90;;
2538;SDS011;1280;49.760;9.664;2023-08-12T02:37:09;12.73;;;4.77;;
2538;SDS011;1280;49.760;9.664;2023-08-12T02:39:39;13.63;;;5.07;;
2538;SDS011;1280;49.760;9.664;2023-08-12T02:42:07;9.03;;;4.10;;
2538;SDS011;1280;49.760;9.664;2023-08-12T02:44:35;10.53;;;4.00;;
2538;SDS011;1280;49.760;9.664;2023-08-12T02:47:03;10.90;;;4.50;;
2538;SDS011;1280;49.760;9.664;2023-08-12T02:49:31;11.23;;;4.80;;
2538;SDS011;1280;49.760;9.664;2023-08-12T02:52:01;15.23;;;4.40;;
2538;SDS011;1280;49.760;9.664;2023-08-12T02:54:29;12.17;;;4.80;;
2538;SDS011;1280;49.760;9.664;2023-08-12T02:56:57;14.43;;;4.10;;
2538;SDS011;1280;49.760;9.664;2023-08-12T02:59:25;10.17;;;3.97;;
2538;SDS011;1280;49.760;9.664;2023-08-12T03:01:53;10.60;;;4.60;;
2538;SDS011;1280;49.760;9.664;2023-08-12T03:04:21;13.93;;;4.67;;
2538;SDS011;1280;49.760;9.664;2023-08-12T03:06:49;12.67;;;4.30;;
2538;SDS011;1280;49.760;9.664;2023-08-12T03:09:18;13.00;;;4.30;;
2538;SDS011;1280;49.760;9.664;2023-08-12T03:11:48;14.03;;;4.40;;
2538;SDS011;1280;49.760;9.664;2023-08-12T03:14:16;9.40;;;3.90;;
2538;SDS011;1280;49.760;9.664;2023-08-12T03:16:44;17.80;;;4.30;;
2538;SDS011;1280;49.760;9.664;2023-08-12T03:19:12;9.77;;;4.50;;
2538;SDS011;1280;49.760;9.664;2023-08-12T03:21:41;11.10;;;4.93;;
2538;SDS011;1280;49.760;9.664;2023-08-12T03:24:10;13.17;;;4.50;;
2538;SDS011;1280;49.760;9.664;2023-08-12T03:26:40;10.03;;;3.87;;
2538;SDS011;1280;49.760;9.664;2023-08-12T03:29:08;17.90;;;4.50;;
2538;SDS011;1280;49.760;9.664;2023-08-12T03:31:39;10.80;;;4.67;;
2538;SDS011;1280;49.760;9.664;2023-08-12T03:34:07;9.10;;;5.17;;
2538;SDS011;1280;49.760;9.664;2023-08-12T03:36:35;8.90;;;4.70;;
2538;SDS011;1280;49.760;9.664;2023-08-12T03:39:05;11.67;;;4.90;;
2538;SDS011;1280;49.760;9.664;2023-08-12T03:41:34;10.10;;;4.77;;
2538;SDS011;1280;49.760;9.664;2023-08-12T03:44:08;9.10;;;5.20;;
2538;SDS011;1280;49.760;9.664;2023-08-12T03:46:37;11.33;;;5.07;;
2538;SDS011;1280;49.760;9.664;2023-08-12T03:49:08;14.27;;;5.10;;
2538;SDS011;1280;49.760;9.664;2023-08-12T03:51:37;11.23;;;5.27;;
2538;SDS011;1280;49.760;9.664;2023-08-12T03:54:06;11.70;;;5.47;;
2538;SDS011;1280;49.760;9.664;2023-08-12T03:56:34;12.00;;;4.40;;
2538;SDS011;1280;49.760;9.664;2023-08-12T03:59:04;15.53;;;4.93;;
2538;SDS011;1280;49.760;9.664;2023-08-12T04:01:34;13.30;;;5.40;;
2538;SDS011;1280;49.760;9.664;2023-08-12T04:04:04;10.53;;;4.70;;
2538;SDS011;1280;49.760;9.664;2023-08-12T04:06:32;11.03;;;5.70;;
2538;SDS011;1280;49.760;9.664;2023-08-12T04:09:01;12.67;;;5.30;;
2538;SDS011;1280;49.760;9.664;2023-08-12T04:11:30;13.13;;;5.90;;
2538;SDS011;1280;49.760;9.664;2023-08-12T04:13:58;9.47;;;4.97;;
2538;SDS011;1280;49.760;9.664;2023-08-12T04:16:26;10.07;;;4.57;;
2538;SDS011;1280;49.760;9.664;2023-08-12T04:18:56;11.37;;;5.70;;
2538;SDS011;1280;49.760;9.664;2023-08-12T04:21:24;13.80;;;5.40;;
2538;SDS011;1280;49.760;9.664;2023-08-12T04:23:52;15.03;;;6.83;;
2538;SDS011;1280;49.760;9.664;2023-08-12T04:26:23;9.57;;;5.07;;
2538;SDS011;1280;49.760;9.664;2023-08-12T04:28:52;13.47;;;5.83;;
2538;SDS011;1280;49.760;9.664;2023-08-12T04:31:20;9.50;;;5.20;;
2538;SDS011;1280;49.760;9.664;2023-08-12T04:33:48;9.93;;;5.30;;
2538;SDS011;1280;49.760;9.664;2023-08-12T04:36:23;13.13;;;5.87;;
2538;SDS011;1280;49.760;9.664;2023-08-12T04:38:51;13.83;;;5.20;;
2538;SDS011;1280;49.760;9.664;2023-08-12T04:41:19;21.73;;;5.80;;
2538;SDS011;1280;49.760;9.664;2023-08-12T04:43:51;16.13;;;5.50;;
2538;SDS011;1280;49.760;9.664;2023-08-12T04:46:23;10.20;;;5.90;;
2538;SDS011;1280;49.760;9.664;2023-08-12T04:48:51;10.87;;;5.70;;
2538;SDS011;1280;49.760;9.664;2023-08-12T04:51:19;9.67;;;4.90;;
2538;SDS011;1280;49.760;9.664;2023-08-12T04:53:48;13.70;;;5.77;;
2538;SDS011;1280;49.760;9.664;2023-08-12T04:56:17;14.43;;;6.03;;
2538;SDS011;1280;49.760;9.664;2023-08-12T04:58:45;12.70;;;6.33;;
2538;SDS011;1280;49.760;9.664;2023-08-12T05:01:13;11.83;;;5.57;;
2538;SDS011;1280;49.760;9.664;2023-08-12T05:03:41;10.53;;;6.20;;
2538;SDS011;1280;49.760;9.664;2023-08-12T05:06:09;10.73;;;5.90;;
2538;SDS011;1280;49.760;9.664;2023-08-12T05:08:38;10.23;;;6.43;;
2538;SDS011;1280;49.760;9.664;2023-08-12T05:11:08;13.13;;;6.57;;
2538;SDS011;1280;49.760;9.664;2023-08-12T05:13:36;15.47;;;6.50;;
2538;SDS011;1280;49.760;9.664;2023-08-12T05:16:04;14.50;;;6.80;;
2538;SDS011;1280;49.760;9.664;2023-08-12T05:18:32;9.17;;;5.80;;
2538;SDS011;1280;49.760;9.664;2023-08-12T05:21:02;17.50;;;6.90;;
2538;SDS011;1280;49.760;9.664;2023-08-12T05:23:30;14.40;;;7.00;;
2538;SDS011;1280;49.760;9.664;2023-08-12T05:25:58;9.60;;;6.47;;
2538;SDS011;1280;49.760;9.664;2023-08-12T05:28:27;11.67;;;6.63;;
2538;SDS011;1280;49.760;9.664;2023-08-12T05:30:57;10.47;;;6.40;;
2538;SDS011;1280;49.760;9.664;2023-08-12T05:33:25;10.00;;;6.07;;
2538;SDS011;1280;49.760;9.664;2023-08-12T05:35:54;11.07;;;6.30;;
2538;SDS011;1280;49.760;9.664;2023-08-12T05:38:25;9.77;;;6.07;;
2538;SDS011;1280;49.760;9.664;2023-08-12T05:40:53;16.23;;;6.23;;
2538;SDS011;1280;49.760;9.664;2023-08-12T05:43:21;9.30;;;6.50;;
2538;SDS011;1280;49.760;9.664;2023-08-12T05:45:53;10.60;;;6.63;;
2538;SDS011;1280;49.760;9.664;2023-08-12T05:48:21;12.73;;;6.10;;
2538;SDS011;1280;49.760;9.664;2023-08-12T05:50:49;12.23;;;6.07;;
2538;SDS011;1280;49.760;9.664;2023-08-12T05:53:22;10.10;;;6.60;;
2538;SDS011;1280;49.760;9.664;2023-08-12T05:55:50;11.30;;;7.23;;
2538;SDS011;1280;49.760;9.664;2023-08-12T05:58:19;11.37;;;7.17;;
2538;SDS011;1280;49.760;9.664;2023-08-12T06:00:47;15.83;;;6.60;;
2538;SDS011;1280;49.760;9.664;2023-08-12T06:03:17;17.00;;;7.60;;
2538;SDS011;1280;49.760;9.664;2023-08-12T06:05:46;9.63;;;6.57;;
2538;SDS011;1280;49.760;9.664;2023-08-12T06:08:15;13.50;;;7.30;;
2538;SDS011;1280;49.760;9.664;2023-08-12T06:10:43;11.93;;;7.60;;
2538;SDS011;1280;49.760;9.664;2023-08-12T06:13:12;13.90;;;7.77;;
2538;SDS011;1280;49.760;9.664;2023-08-12T06:15:40;14.60;;;7.20;;
2538;SDS011;1280;49.760;9.664;2023-08-12T06:18:14;16.93;;;7.10;;
2538;SDS011;1280;49.760;9.664;2023-08-12T06:20:43;10.60;;;6.80;;
2538;SDS011;1280;49.760;9.664;2023-08-12T06:23:12;12.90;;;7.13;;
2538;SDS011;1280;49.760;9.664;2023-08-12T06:25:40;12.83;;;6.83;;
2538;SDS011;1280;49.760;9.664;2023-08-12T06:28:09;13.60;;;7.47;;
2538;SDS011;1280;49.760;9.664;2023-08-12T06:30:37;13.63;;;6.90;;
2538;SDS011;1280;49.760;9.664;2023-08-12T06:33:05;11.33;;;6.27;;
2538;SDS011;1280;49.760;9.664;2023-08-12T06:35:33;15.63;;;6.50;;
2538;SDS011;1280;49.760;9.664;2023-08-12T06:38:02;10.60;;;7.07;;
2538;SDS011;1280;49.760;9.664;2023-08-12T06:40:30;11.17;;;6.87;;
2538;SDS011;1280;49.760;9.664;2023-08-12T06:42:58;12.30;;;6.70;;
2538;SDS011;1280;49.760;9.664;2023-08-12T06:45:27;10.63;;;6.90;;
2538;SDS011;1280;49.760;9.664;2023-08-12T06:47:55;12.83;;;6.83;;
2538;SDS011;1280;49.760;9.664;2023-08-12T06:50:23;10.67;;;6.50;;
2538;SDS011;1280;49.760;9.664;2023-08-12T06:52:51;14.13;;;7.97;;
2538;SDS011;1280;49.760;9.664;2023-08-12T06:55:20;14.20;;;7.63;;
2538;SDS011;1280;49.760;9.664;2023-08-12T06:57:49;12.73;;;7.23;;
2538;SDS011;1280;49.760;9.664;2023-08-12T07:00:17;10.77;;;7.03;;
2538;SDS011;1280;49.760;9.664;2023-08-12T07:02:45;10.80;;;6.60;;
2538;SDS011;1280;49.760;9.664;2023-08-12T07:05:13;15.63;;;7.23;;
2538;SDS011;1280;49.760;9.664;2023-08-12T07:07:41;18.17;;;6.60;;
2538;SDS011;1280;49.760;9.664;2023-08-12T07:10:10;13.63;;;6.90;;
2538;SDS011;1280;49.760;9.664;2023-08-12T07:12:39;14.60;;;7.53;;
2538;SDS011;1280;49.760;9.664;2023-08-12T07:15:08;11.33;;;6.67;;
2538;SDS011;1280;49.760;9.664;2023-08-12T07:17:37;17.10;;;7.40;;
2538;SDS011;1280;49.760;9.664;2023-08-12T07:20:05;12.07;;;6.97;;
2538;SDS011;1280;49.760;9.664;2023-08-12T07:22:34;11.90;;;7.63;;
2538;SDS011;1280;49.760;9.664;2023-08-12T07:25:02;12.03;;;7.60;;
2538;SDS011;1280;49.760;9.664;2023-08-12T07:27:30;13.73;;;7.77;;
2538;SDS011;1280;49.760;9.664;2023-08-12T07:30:00;15.60;;;6.97;;
2538;SDS011;1280;49.760;9.664;2023-08-12T07:32:28;11.83;;;7.23;;
2538;SDS011;1280;49.760;9.664;2023-08-12T07:34:56;11.80;;;7.57;;
2538;SDS011;1280;49.760;9.664;2023-08-12T07:37:24;11.07;;;6.83;;
2538;SDS011;1280;49.760;9.664;2023-08-12T07:39:53;12.20;;;6.43;;
2538;SDS011;1280;49.760;9.664;2023-08-12T07:42:21;10.17;;;6.70;;
2538;SDS011;1280;49.760;9.664;2023-08-12T07:44:49;10.70;;;7.23;;
2538;SDS011;1280;49.760;9.664;2023-08-12T07:47:19;12.23;;;6.90;;
2538;SDS011;1280;49.760;9.664;2023-08-12T07:49:47;11.50;;;7.27;;
2538;SDS011;1280;49.760;9.664;2023-08-12T07:52:15;16.30;;;7.03;;
2538;SDS011;1280;49.760;9.664;2023-08-12T07:54:43;15.77;;;7.40;;
2538;SDS011;1280;49.760;9.664;2023-08-12T07:57:11;10.37;;;6.60;;
2538;SDS011;1280;49.760;9.664;2023-08-12T07:59:39;10.93;;;6.93;;
2538;SDS011;1280;49.760;9.664;2023-08-12T08:02:07;9.93;;;6.50;;
2538;SDS011;1280;49.760;9.664;2023-08-12T08:04:36;13.63;;;6.73;;
2538;SDS011;1280;49.760;9.664;2023-08-12T08:07:04;10.30;;;6.67;;
2538;SDS011;1280;49.760;9.664;2023-08-12T08:09:32;10.83;;;6.60;;
2538;SDS011;1280;49.760;9.664;2023-08-12T08:12:00;8.50;;;5.97;;
2538;SDS011;1280;49.760;9.664;2023-08-12T08:14:28;11.30;;;6.30;;
2538;SDS011;1280;49.760;9.664;2023-08-12T08:16:56;8.87;;;6.10;;
2538;SDS011;1280;49.760;9.664;2023-08-12T08:19:25;8.10;;;5.57;;
2538;SDS011;1280;49.760;9.664;2023-08-12T08:21:56;11.03;;;6.00;;
2538;SDS011;1280;49.760;9.664;2023-08-12T08:24:25;8.10;;;5.90;;
2538;SDS011;1280;49.760;9.664;2023-08-12T08:26:54;11.20;;;6.20;;
2538;SDS011;1280;49.760;9.664;2023-08-12T08:29:22;8.40;;;6.10;;
2538;SDS011;1280;49.760;9.664;2023-08-12T08:31:50;8.67;;;5.93;;
2538;SDS011;1280;49.760;9.664;2023-08-12T08:34:18;11.27;;;6.30;;
2538;SDS011;1280;49.760;9.664;2023-08-12T08:36:46;9.87;;;6.00;;
2538;SDS011;1280;49.760;9.664;2023-08-12T08:39:17;8.90;;;5.50;;
2538;SDS011;1280;49.760;9.664;2023-08-12T08:41:44;14.13;;;5.53;;
2538;SDS011;1280;49.760;9.664;2023-08-12T08:44:16;11.97;;;6.37;;
2538;SDS011;1280;49.760;9.664;2023-08-12T08:46:49;9.83;;;6.20;;
2538;SDS011;1280;49.760;9.664;2023-08-12T08:49:20;9.53;;;6.37;;
2538;SDS011;1280;49.760;9.664;2023-08-12T08:51:50;12.00;;;6.13;;
2538;SDS011;1280;49.760;9.664;2023-08-12T08:54:20;7.83;;;5.53;;
2538;SDS011;1280;49.760;9.664;2023-08-12T08:56:49;8.33;;;5.37;;
2538;SDS011;1280;49.760;9.664;2023-08-12T08:59:34;11.43;;;6.43;;
2538;SDS011;1280;49.760;9.664;2023-08-12T09:02:02;10.10;;;5.97;;
2538;SDS011;1280;49.760;9.664;2023-08-12T09:04:32;12.80;;;6.10;;
2538;SDS011;1280;49.760;9.664;2023-08-12T09:07:01;12.17;;;6.80;;
2538;SDS011;1280;49.760;9.664;2023-08-12T09:09:32;24.93;;;7.10;;
2538;SDS011;1280;49.760;9.664;2023-08-12T09:12:01;10.03;;;7.13;;
2538;SDS011;1280;49.760;9.664;2023-08-12T09:14:32;11.80;;;7.63;;
2538;SDS011;1280;49.760;9.664;2023-08-12T09:17:01;11.57;;;6.70;;
2538;SDS011;1280;49.760;9.664;2023-08-12T09:19:29;11.20;;;6.77;;
2538;SDS011;1280;49.760;9.664;2023-08-12T09:22:11;10.43;;;6.80;;
2538;SDS011;1280;49.760;9.664;2023-08-12T09:24:45;9.07;;;6.50;;
2538;SDS011;1280;49.760;9.664;2023-08-12T09:27:16;13.03;;;6.50;;
2538;SDS011;1280;49.760;9.664;2023-08-12T09:29:45;10.10;;;6.60;;
2538;SDS011;1280;49.760;9.664;2023-08-12T09:32:18;9.70;;;6.77;;
2538;SDS011;1280;49.760;9.664;2023-08-12T09:34:47;9.53;;;6.90;;
2538;SDS011;1280;49.760;9.664;2023-08-12T09:37:15;8.87;;;6.37;;
2538;SDS011;1280;49.760;9.664;2023-08-12T09:39:46;11.03;;;6.90;;
2538;SDS011;1280;49.760;9.664;2023-08-12T09:42:15;12.20;;;7.10;;
2538;SDS011;1280;49.760;9.664;2023-08-12T09:44:43;10.23;;;7.10;;
2538;SDS011;1280;49.760;9.664;2023-08-12T09:47:12;10.90;;;7.30;;
2538;SDS011;1280;49.760;9.664;2023-08-12T09:49:40;9.80;;;7.13;;
2538;SDS011;1280;49.760;9.664;2023-08-12T09:52:10;10.87;;;7.07;;
2538;SDS011;1280;49.760;9.664;2023-08-12T09:54:40;10.87;;;6.50;;
2538;SDS011;1280;49.760;9.664;2023-08-12T09:57:11;14.23;;;7.77;;
2538;SDS011;1280;49.760;9.664;2023-08-12T09:59:41;12.17;;;8.00;;
2538;SDS011;1280;49.760;9.664;2023-08-12T10:02:14;10.13;;;5.80;;
2538;SDS011;1280;49.760;9.664;2023-08-12T10:04:46;13.07;;;7.07;;
2538;SDS011;1280;49.760;9.664;2023-08-12T10:07:17;15.07;;;6.97;;
2538;SDS011;1280;49.760;9.664;2023-08-12T10:09:46;14.63;;;6.67;;
2538;SDS011;1280;49.760;9.664;2023-08-12T10:12:16;9.30;;;7.23;;
2538;SDS011;1280;49.760;9.664;2023-08-12T10:14:46;12.83;;;7.20;;
2538;SDS011;1280;49.760;9.664;2023-08-12T10:17:14;10.70;;;6.17;;
2538;SDS011;1280;49.760;9.664;2023-08-12T10:20:03;13.70;;;7.07;;
2538;SDS011;1280;49.760;9.664;2023-08-12T10:22:34;9.37;;;6.30;;
2538;SDS011;1280;49.760;9.664;2023-08-12T10:25:03;9.93;;;6.07;;
2538;SDS011;1280;49.760;9.664;2023-08-12T10:27:35;10.33;;;6.17;;
2538;SDS011;1280;49.760;9.664;2023-08-12T10:30:04;13.00;;;6.43;;
2538;SDS011;1280;49.760;9.664;2023-08-12T10:32:34;11.17;;;6.37;;
2538;SDS011;1280;49.760;9.664;2023-08-12T10:35:02;13.30;;;11.90;;
2538;SDS011;1280;49.760;9.664;2023-08-12T10:37:33;9.83;;;6.80;;
2538;SDS011;1280;49.760;9.664;2023-08-12T10:40:03;8.33;;;5.83;;
2538;SDS011;1280;49.760;9.664;2023-08-12T10:42:41;11.90;;;6.90;;
2538;SDS011;1280;49.760;9.664;2023-08-12T10:45:11;9.13;;;5.83;;
2538;SDS011;1280;49.760;9.664;2023-08-12T10:47:41;8.87;;;6.20;;
2538;SDS011;1280;49.760;9.664;2023-08-12T10:50:17;11.70;;;5.33;;
2538;SDS011;1280;49.760;9.664;2023-08-12T10:52:46;9.90;;;5.77;;
2538;SDS011;1280;49.760;9.664;2023-08-12T10:55:21;9.07;;;5.63;;
2538;SDS011;1280;49.760;9.664;2023-08-12T10:57:52;8.30;;;5.67;;
2538;SDS011;1280;49.760;9.664;2023-08-12T11:00:23;8.30;;;4.70;;
2538;SDS011;1280;49.760;9.664;2023-08-12T11:02:52;8.50;;;5.50;;
2538;SDS011;1280;49.760;9.664;2023-08-12T11:05:23;8.87;;;4.97;;
2538;SDS011;1280;49.760;9.664;2023-08-12T11:07:55;7.93;;;5.40;;
2538;SDS011;1280;49.760;9.664;2023-08-12T11:10:27;7.90;;;5.50;;
2538;SDS011;1280;49.760;9.664;2023-08-12T11:13:02;13.23;;;5.87;;
2538;SDS011;1280;49.760;9.664;2023-08-12T11:15:31;9.33;;;5.63;;
2538;SDS011;1280;49.760;9.664;2023-08-12T11:18:02;9.23;;;5.33;;
2538;SDS011;1280;49.760;9.664;2023-08-12T11:20:31;11.60;;;6.10;;
2538;SDS011;1280;49.760;9.664;2023-08-12T11:23:00;7.57;;;5.13;;
2538;SDS011;1280;49.760;9.664;2023-08-12T11:25:29;7.70;;;5.27;;
2538;SDS011;1280;49.760;9.664;2023-08-12T11:27:58;8.60;;;5.80;;
2538;SDS011;1280;49.760;9.664;2023-08-12T11:30:27;9.20;;;5.30;;
2538;SDS011;1280;49.760;9.664;2023-08-12T11:32:58;8.00;;;5.70;;
2538;SDS011;1280;49.760;9.664;2023-08-12T11:35:27;12.70;;;5.10;;
2538;SDS011;1280;49.760;9.664;2023-08-12T11:37:57;7.17;;;5.60;;
2538;SDS011;1280;49.760;9.664;2023-08-12T11:40:26;11.07;;;5.40;;
2538;SDS011;1280;49.760;9.664;2023-08-12T11:42:55;7.60;;;5.60;;
2538;SDS011;1280;49.760;9.664;2023-08-12T11:45:24;7.70;;;5.47;;
2538;SDS011;1280;49.760;9.664;2023-08-12T11:47:54;12.90;;;5.90;;
2538;SDS011;1280;49.760;9.664;2023-08-12T11:50:23;8.73;;;6.50;;
2538;SDS011;1280;49.760;9.664;2023-08-12T11:52:53;10.43;;;6.40;;
2538;SDS011;1280;49.760;9.664;2023-08-12T11:55:23;9.20;;;5.93;;
2538;SDS011;1280;49.760;9.664;2023-08-12T11:57:53;14.23;;;7.83;;
2538;SDS011;1280;49.760;9.664;2023-08-12T12:00:21;10.80;;;6.17;;
2538;SDS011;1280;49.760;9.664;2023-08-12T12:02:51;8.60;;;6.27;;
2538;SDS011;1280;49.760;9.664;2023-08-12T12:05:22;8.33;;;6.50;;
2538;SDS011;1280;49.760;9.664;2023-08-12T12:07:51;10.97;;;6.00;;
2538;SDS011;1280;49.760;9.664;2023-08-12T12:10:20;9.07;;;6.30;;
2538;SDS011;1280;49.760;9.664;2023-08-12T12:12:58;12.00;;;5.90;;
2538;SDS011;1280;49.760;9.664;2023-08-12T12:15:41;12.93;;;6.67;;
2538;SDS011;1280;49.760;9.664;2023-08-12T12:18:10;12.63;;;6.27;;
2538;SDS011;1280;49.760;9.664;2023-08-12T12:20:53;11.30;;;2.93;;
2538;SDS011;1280;49.760;9.664;2023-08-12T12:23:26;11.50;;;5.40;;
2538;SDS011;1280;49.760;9.664;2023-08-12T12:25:58;7.97;;;4.03;;
2538;SDS011;1280;49.760;9.664;2023-08-12T12:28:27;13.70;;;5.47;;
2538;SDS011;1280;49.760;9.664;2023-08-12T12:30:55;17.37;;;6.33;;
2538;SDS011;1280;49.760;9.664;2023-08-12T12:33:24;12.27;;;6.17;;
2538;SDS011;1280;49.760;9.664;2023-08-12T12:35:53;13.50;;;5.70;;
2538;SDS011;1280;49.760;9.664;2023-08-12T12:38:26;14.30;;;5.63;;
2538;SDS011;1280;49.760;9.664;2023-08-12T12:40:56;9.43;;;4.87;;
2538;SDS011;1280;49.760;9.664;2023-08-12T12:43:33;8.40;;;4.47;;
2538;SDS011;1280;49.760;9.664;2023-08-12T12:46:06;8.30;;;3.80;;
2538;SDS011;1280;49.760;9.664;2023-08-12T12:48:35;8.20;;;4.07;;
2538;SDS011;1280;49.760;9.664;2023-08-12T12:51:08;7.83;;;4.60;;
2538;SDS011;1280;49.760;9.664;2023-08-12T12:53:36;7.10;;;4.23;;
2538;SDS011;1280;49.760;9.664;2023-08-12T12:56:04;9.00;;;4.70;;
2538;SDS011;1280;49.760;9.664;2023-08-12T12:58:32;8.73;;;4.10;;
2538;SDS011;1280;49.760;9.664;2023-08-12T13:01:01;7.20;;;3.97;;
2538;SDS011;1280;49.760;9.664;2023-08-12T13:03:30;9.07;;;4.50;;
2538;SDS011;1280;49.760;9.664;2023-08-12T13:06:10;8.00;;;4.60;;
2538;SDS011;1280;49.760;9.664;2023-08-12T13:08:41;9.37;;;4.67;;
2538;SDS011;1280;49.760;9.664;2023-08-12T13:11:09;7.57;;;4.40;;
2538;SDS011;1280;49.760;9.664;2023-08-12T13:13:37;6.73;;;4.60;;
2538;SDS011;1280;49.760;9.664;2023-08-12T13:16:05;8.57;;;4.07;;
2538;SDS011;1280;49.760;9.664;2023-08-12T13:18:34;9.57;;;4.30;;
2538;SDS011;1280;49.760;9.664;2023-08-12T13:21:08;12.20;;;4.30;;
2538;SDS011;1280;49.760;9.664;2023-08-12T13:26:16;6.10;;;3.83;;
2538;SDS011;1280;49.760;9.664;2023-08-12T13:28:51;8.10;;;4.23;;
2538;SDS011;1280;49.760;9.664;2023-08-12T13:31:20;8.33;;;3.70;;
2538;SDS011;1280;49.760;9.664;2023-08-12T13:33:49;8.57;;;3.93;;
2538;SDS011;1280;49.760;9.664;2023-08-12T13:36:21;8.23;;;3.50;;
2538;SDS011;1280;49.760;9.664;2023-08-12T13:38:48;6.20;;;3.00;;
2538;SDS011;1280;49.760;9.664;2023-08-12T13:41:20;7.07;;;3.40;;
2538;SDS011;1280;49.760;9.664;2023-08-12T13:43:48;8.17;;;2.70;;
2538;SDS011;1280;49.760;9.664;2023-08-12T13:46:22;5.70;;;1.80;;
2538;SDS011;1280;49.760;9.664;2023-08-12T13:48:50;7.07;;;2.10;;
2538;SDS011;1280;49.760;9.664;2023-08-12T13:51:22;4.40;;;1.97;;
2538;SDS011;1280;49.760;9.664;2023-08-12T13:53:50;5.20;;;1.50;;
2538;SDS011;1280;49.760;9.664;2023-08-12T13:56:18;5.63;;;1.60;;
2538;SDS011;1280;49.760;9.664;2023-08-12T13:58:49;5.17;;;2.10;;
2538;SDS011;1280;49.760;9.664;2023-08-12T14:01:17;4.10;;;1.70;;
2538;SDS011;1280;49.760;9.664;2023-08-12T14:03:46;6.67;;;2.37;;
2538;SDS011;1280;49.760;9.664;2023-08-12T14:06:14;6.63;;;2.20;;
2538;SDS011;1280;49.760;9.664;2023-08-12T14:08:44;5.57;;;2.13;;
2538;SDS011;1280;49.760;9.664;2023-08-12T14:11:12;6.00;;;1.80;;
2538;SDS011;1280;49.760;9.664;2023-08-12T14:13:41;6.10;;;2.00;;
2538;SDS011;1280;49.760;9.664;2023-08-12T14:16:13;5.33;;;1.80;;
2538;SDS011;1280;49.760;9.664;2023-08-12T14:18:44;5.87;;;2.37;;
2538;SDS011;1280;49.760;9.664;2023-08-12T14:21:12;6.80;;;2.60;;
2538;SDS011;1280;49.760;9.664;2023-08-12T14:23:41;5.20;;;2.20;;
2538;SDS011;1280;49.760;9.664;2023-08-12T14:26:11;5.37;;;1.80;;
2538;SDS011;1280;49.760;9.664;2023-08-12T14:28:42;5.07;;;2.30;;
2538;SDS011;1280;49.760;9.664;2023-08-12T14:31:10;6.97;;;2.77;;
2538;SDS011;1280;49.760;9.664;2023-08-12T14:33:38;6.03;;;2.77;;
2538;SDS011;1280;49.760;9.664;2023-08-12T14:36:06;5.53;;;2.50;;
2538;SDS011;1280;49.760;9.664;2023-08-12T14:38:34;8.43;;;3.10;;
2538;SDS011;1280;49.760;9.664;2023-08-12T14:41:03;6.63;;;2.77;;
2538;SDS011;1280;49.760;9.664;2023-08-12T14:43:32;7.17;;;3.30;;
2538;SDS011;1280;49.760;9.664;2023-08-12T14:46:02;8.00;;;3.77;;
2538;SDS011;1280;49.760;9.664;2023-08-12T14:48:30;6.40;;;3.53;;
2538;SDS011;1280;49.760;9.664;2023-08-12T14:51:00;8.53;;;4.10;;
2538;SDS011;1280;49.760;9.664;2023-08-12T14:53:28;10.63;;;3.80;;
2538;SDS011;1280;49.760;9.664;2023-08-12T14:55:59;8.90;;;3.70;;
2538;SDS011;1280;49.760;9.664;2023-08-12T14:58:29;7.17;;;4.17;;
2538;SDS011;1280;49.760;9.664;2023-08-12T15:00:57;8.97;;;4.00;;
2538;SDS011;1280;49.760;9.664;2023-08-12T15:03:27;8.37;;;3.43;;
2538;SDS011;1280;49.760;9.664;2023-08-12T15:05:59;7.47;;;3.73;;
2538;SDS011;1280;49.760;9.664;2023-08-12T15:08:27;9.53;;;3.97;;
2538;SDS011;1280;49.760;9.664;2023-08-12T15:10:55;6.20;;;3.60;;
2538;SDS011;1280;49.760;9.664;2023-08-12T15:13:24;8.37;;;3.70;;
2538;SDS011;1280;49.760;9.664;2023-08-12T15:15:54;7.23;;;3.60;;
2538;SDS011;1280;49.760;9.664;2023-08-12T15:18:22;6.00;;;4.03;;
2538;SDS011;1280;49.760;9.664;2023-08-12T15:20:52;8.20;;;4.63;;
2538;SDS011;1280;49.760;9.664;2023-08-12T15:23:20;8.93;;;5.10;;
2538;SDS011;1280;49.760;9.664;2023-08-12T15:25:48;8.53;;;4.47;;
2538;SDS011;1280;49.760;9.664;2023-08-12T15:28:16;11.10;;;4.37;;
2538;SDS011;1280;49.760;9.664;2023-08-12T15:30:47;6.20;;;3.90;;